createdAt,value
2023-02-16T00:00:00.293Z,-0.5
2023-02-16T00:01:01.181Z,-0.4
2023-02-16T00:02:00.350Z,-0.4
2023-02-16T00:03:00.352Z,-0.4
2023-02-16T00:04:01.124Z,-0.4
2023-02-16T00:05:00.300Z,-0.4
2023-02-16T00:06:00.290Z,-0.4
2023-02-16T00:07:00.293Z,-0.4
2023-02-16T00:08:00.833Z,-0.4
2023-02-16T00:09:00.281Z,-0.4
2023-02-16T00:10:00.300Z,-0.5
2023-02-16T00:11:00.529Z,-0.5
2023-02-16T00:12:00.419Z,-0.5
2023-02-16T00:13:01.058Z,-0.5
2023-02-16T00:14:00.475Z,-0.5
2023-02-16T00:15:00.330Z,-0.5
2023-02-16T00:16:00.391Z,-0.6
2023-02-16T00:17:00.941Z,-0.6
2023-02-16T00:18:01.447Z,-0.6
2023-02-16T00:19:00.562Z,-0.6
2023-02-16T00:20:00.305Z,-0.6
2023-02-16T00:21:00.296Z,-0.6
2023-02-16T00:22:01.126Z,-0.6
2023-02-16T00:23:00.291Z,-0.5
2023-02-16T00:24:00.326Z,-0.5
2023-02-16T00:25:00.309Z,-0.6
2023-02-16T00:26:00.592Z,-0.6
2023-02-16T00:27:00.940Z,-0.6
2023-02-16T00:28:04.727Z,-0.6
2023-02-16T00:29:00.573Z,-0.6
2023-02-16T00:30:00.629Z,-0.6
2023-02-16T00:31:00.490Z,-0.7
2023-02-16T00:32:02.340Z,-0.7
2023-02-16T00:33:00.366Z,-0.7
2023-02-16T00:34:20.235Z,-0.8
2023-02-16T00:35:00.597Z,-0.8
2023-02-16T00:36:00.313Z,-0.8
2023-02-16T00:37:03.258Z,-0.9
2023-02-16T00:38:00.327Z,-0.9
2023-02-16T00:39:00.307Z,-0.9
2023-02-16T00:40:00.320Z,-1.0
2023-02-16T00:41:00.574Z,-1.0
2023-02-16T00:42:03.909Z,-1.0
2023-02-16T00:43:00.417Z,-1.0
2023-02-16T00:44:00.307Z,-1.0
2023-02-16T00:45:00.808Z,-1.1
2023-02-16T00:46:00.417Z,-1.0
2023-02-16T00:47:07.821Z,-1.0
2023-02-16T00:48:00.708Z,-0.9
2023-02-16T00:49:00.314Z,-1.0
2023-02-16T00:50:00.288Z,-1.0
2023-02-16T00:51:00.317Z,-1.0
2023-02-16T00:52:00.681Z,-1.1
2023-02-16T00:53:00.610Z,-1.1
2023-02-16T00:54:00.281Z,-1.1
2023-02-16T00:55:04.811Z,-1.2
2023-02-16T00:56:00.397Z,-1.1
2023-02-16T00:57:00.438Z,-1.1
2023-02-16T00:58:13.824Z,-1.0
2023-02-16T00:59:01.806Z,-1.0
2023-02-16T01:00:14.186Z,-0.9
2023-02-16T01:01:08.378Z,-0.9
2023-02-16T01:02:00.311Z,-0.9
2023-02-16T01:03:04.378Z,-0.9
2023-02-16T01:04:03.373Z,-0.9
2023-02-16T01:05:00.333Z,-0.9
2023-02-16T01:06:00.316Z,-0.9
2023-02-16T01:07:00.344Z,-0.9
2023-02-16T01:08:01.384Z,-0.9
2023-02-16T01:09:11.597Z,-0.8
2023-02-16T01:10:00.274Z,-0.7
2023-02-16T01:11:03.216Z,-0.7
2023-02-16T01:12:03.469Z,-0.7
2023-02-16T01:13:00.458Z,-0.7
2023-02-16T01:14:00.462Z,-0.7
2023-02-16T01:15:00.314Z,-0.8
2023-02-16T01:16:00.349Z,-0.8
2023-02-16T01:17:00.324Z,-0.9
2023-02-16T01:18:00.320Z,-0.9
2023-02-16T01:19:00.296Z,-0.9
2023-02-16T01:20:00.292Z,-0.9
2023-02-16T01:21:00.280Z,-0.9
2023-02-16T01:22:00.261Z,-0.9
2023-02-16T01:23:00.288Z,-1.0
2023-02-16T01:24:00.366Z,-1.0
2023-02-16T01:25:00.317Z,-1.0
2023-02-16T01:26:00.450Z,-1.0
2023-02-16T01:27:00.968Z,-1.0
2023-02-16T01:28:00.292Z,-1.0
2023-02-16T01:29:00.287Z,-1.0
2023-02-16T01:30:00.351Z,-1.0
2023-02-16T01:31:00.948Z,-1.0
2023-02-16T01:32:00.400Z,-1.0
2023-02-16T01:33:00.286Z,-1.0
2023-02-16T01:34:00.287Z,-1.0
2023-02-16T01:35:00.437Z,-1.1
2023-02-16T01:36:00.280Z,-1.1
2023-02-16T01:37:00.314Z,-1.1
2023-02-16T01:38:00.470Z,-1.1
2023-02-16T01:39:01.148Z,-1.1
2023-02-16T01:40:00.388Z,-1.1
2023-02-16T01:41:01.595Z,-1.1
2023-02-16T01:42:10.963Z,-1.1
2023-02-16T01:43:08.969Z,-1.1
2023-02-16T01:44:11.802Z,-1.1
2023-02-16T01:45:09.946Z,-1.1
2023-02-16T01:46:04.227Z,-1.2
2023-02-16T01:47:14.623Z,-1.1
2023-02-16T01:48:03.952Z,-1.1
2023-02-16T01:49:00.284Z,-1.1
2023-02-16T01:50:15.629Z,-1.0
2023-02-16T01:51:07.145Z,-1.0
2023-02-16T01:52:10.246Z,-1.0
2023-02-16T01:53:11.506Z,-1.0
2023-02-16T01:54:13.482Z,-1.0
2023-02-16T01:55:16.571Z,-1.0
2023-02-16T01:56:04.843Z,-0.9
2023-02-16T01:57:10.045Z,-0.9
2023-02-16T01:58:07.129Z,-0.9
2023-02-16T01:59:17.064Z,-0.9
2023-02-16T02:00:04.232Z,-0.9
2023-02-16T02:01:00.285Z,-0.9
2023-02-16T02:02:03.253Z,-0.9
2023-02-16T02:03:01.752Z,-0.9
2023-02-16T02:04:00.867Z,-0.9
2023-02-16T02:05:20.193Z,-0.9
2023-02-16T02:06:00.335Z,-0.9
2023-02-16T02:07:00.304Z,-0.9
2023-02-16T02:08:05.120Z,-0.9
2023-02-16T02:09:09.171Z,-0.9
2023-02-16T02:10:14.520Z,-0.9
2023-02-16T02:11:08.578Z,-0.9
2023-02-16T02:12:09.542Z,-0.9
2023-02-16T02:13:06.508Z,-0.9
2023-02-16T02:14:10.248Z,-0.9
2023-02-16T02:15:00.300Z,-0.9
2023-02-16T02:16:02.781Z,-0.9
2023-02-16T02:17:06.278Z,-0.9
2023-02-16T02:18:00.733Z,-1.0
2023-02-16T02:19:00.326Z,-1.0
2023-02-16T02:20:15.652Z,-1.0
2023-02-16T02:21:10.228Z,-1.0
2023-02-16T02:22:10.224Z,-1.0
2023-02-16T02:23:20.209Z,-1.0
2023-02-16T02:24:20.214Z,-0.9
2023-02-16T02:25:20.196Z,-0.9
2023-02-16T02:26:17.541Z,-0.9
2023-02-16T02:27:10.239Z,-0.8
2023-02-16T02:28:04.543Z,-0.9
2023-02-16T02:29:10.120Z,-0.9
2023-02-16T02:30:11.318Z,-0.9
2023-02-16T02:31:20.302Z,-0.9
2023-02-16T02:32:07.056Z,-0.9
2023-02-16T02:33:10.253Z,-0.8
2023-02-16T02:34:20.212Z,-0.8
2023-02-16T02:35:11.305Z,-0.8
2023-02-16T02:36:11.246Z,-0.9
2023-02-16T02:37:10.527Z,-0.9
2023-02-16T02:38:15.170Z,-0.9
2023-02-16T02:39:13.214Z,-0.9
2023-02-16T02:40:08.473Z,-0.9
2023-02-16T02:41:11.270Z,-0.8
2023-02-16T02:42:09.727Z,-0.8
2023-02-16T02:43:17.486Z,-0.9
2023-02-16T02:44:05.134Z,-0.9
2023-02-16T02:45:06.364Z,-0.9
2023-02-16T02:46:10.765Z,-1.0
2023-02-16T02:47:00.438Z,-1.0
2023-02-16T02:48:00.282Z,-1.0
2023-02-16T02:49:00.290Z,-0.9
2023-02-16T02:50:00.294Z,-0.9
2023-02-16T02:51:03.567Z,-0.9
2023-02-16T02:52:01.118Z,-0.9
2023-02-16T02:53:05.259Z,-0.9
2023-02-16T02:54:06.738Z,-0.9
2023-02-16T02:55:00.328Z,-0.9
2023-02-16T02:56:01.793Z,-1.0
2023-02-16T02:57:05.663Z,-1.0
2023-02-16T02:58:01.478Z,-1.0
2023-02-16T02:59:05.538Z,-0.9
2023-02-16T03:00:04.234Z,-0.9
2023-02-16T03:01:01.014Z,-0.9
2023-02-16T03:02:01.527Z,-0.9
2023-02-16T03:03:09.913Z,-0.9
2023-02-16T03:04:00.411Z,-1.0
2023-02-16T03:05:02.845Z,-1.0
2023-02-16T03:06:06.532Z,-1.0
2023-02-16T03:07:04.128Z,-1.0
2023-02-16T03:08:07.184Z,-1.1
2023-02-16T03:09:05.098Z,-1.1
2023-02-16T03:10:00.312Z,-1.1
2023-02-16T03:11:10.394Z,-1.1
2023-02-16T03:12:02.825Z,-1.1
2023-02-16T03:13:02.685Z,-1.1
2023-02-16T03:14:05.684Z,-1.0
2023-02-16T03:15:01.503Z,-1.0
2023-02-16T03:16:05.507Z,-1.0
2023-02-16T03:17:08.874Z,-1.1
2023-02-16T03:18:03.194Z,-1.1
2023-02-16T03:19:01.794Z,-1.0
2023-02-16T03:20:05.049Z,-1.0
2023-02-16T03:21:02.488Z,-1.0
2023-02-16T03:22:01.191Z,-1.0
2023-02-16T03:23:03.646Z,-1.0
2023-02-16T03:24:04.398Z,-1.0
2023-02-16T03:25:00.341Z,-1.0
2023-02-16T03:26:00.823Z,-1.0
2023-02-16T03:27:01.335Z,-0.9
2023-02-16T03:28:03.348Z,-0.8
2023-02-16T03:29:01.760Z,-0.8
2023-02-16T03:30:03.444Z,-0.8
2023-02-16T03:31:02.512Z,-0.8
2023-02-16T03:32:00.951Z,-0.8
2023-02-16T03:33:00.302Z,-0.8
2023-02-16T03:34:01.719Z,-0.8
2023-02-16T03:35:00.689Z,-0.8
2023-02-16T03:36:02.028Z,-0.9
2023-02-16T03:37:00.499Z,-0.9
2023-02-16T03:38:00.618Z,-0.9
2023-02-16T03:39:01.390Z,-0.9
2023-02-16T03:40:00.329Z,-0.9
2023-02-16T03:41:00.494Z,-1.0
2023-02-16T03:42:00.782Z,-1.0
2023-02-16T03:43:02.592Z,-1.1
2023-02-16T03:44:00.380Z,-1.1
2023-02-16T03:45:00.434Z,-1.0
2023-02-16T03:46:00.422Z,-1.0
2023-02-16T03:47:00.274Z,-1.0
2023-02-16T03:48:01.013Z,-1.0
2023-02-16T03:49:00.285Z,-1.0
2023-02-16T03:50:00.294Z,-1.0
2023-02-16T03:51:00.304Z,-1.0
2023-02-16T03:52:00.317Z,-0.9
2023-02-16T03:53:00.392Z,-0.9
2023-02-16T03:54:00.524Z,-0.9
2023-02-16T03:55:00.283Z,-0.9
2023-02-16T03:56:00.300Z,-0.9
2023-02-16T03:57:00.345Z,-0.8
2023-02-16T03:58:00.349Z,-0.9
2023-02-16T03:59:00.280Z,-0.9
2023-02-16T04:00:00.410Z,-1.0
2023-02-16T04:01:00.360Z,-1.0
2023-02-16T04:02:00.306Z,-1.0
2023-02-16T04:03:01.225Z,-1.0
2023-02-16T04:04:00.419Z,-1.0
2023-02-16T04:05:00.291Z,-1.0
2023-02-16T04:06:00.518Z,-1.0
2023-02-16T04:07:00.305Z,-1.0
2023-02-16T04:08:00.689Z,-0.9
2023-02-16T04:09:00.822Z,-0.9
2023-02-16T04:10:00.314Z,-0.8
2023-02-16T04:11:00.303Z,-0.9
2023-02-16T04:12:00.326Z,-0.9
2023-02-16T04:13:00.281Z,-1.0
2023-02-16T04:14:00.305Z,-1.0
2023-02-16T04:15:00.519Z,-1.0
2023-02-16T04:16:00.325Z,-0.9
2023-02-16T04:17:00.299Z,-0.9
2023-02-16T04:18:01.060Z,-0.9
2023-02-16T04:19:00.273Z,-0.9
2023-02-16T04:20:00.337Z,-0.9
2023-02-16T04:21:00.296Z,-0.9
2023-02-16T04:22:00.337Z,-0.9
2023-02-16T04:23:00.854Z,-0.9
2023-02-16T04:24:00.316Z,-0.8
2023-02-16T04:25:00.323Z,-0.9
2023-02-16T04:26:00.288Z,-0.9
2023-02-16T04:27:00.318Z,-0.9
2023-02-16T04:28:00.305Z,-1.0
2023-02-16T04:29:00.361Z,-1.0
2023-02-16T04:30:00.371Z,-1.1
2023-02-16T04:31:00.428Z,-1.0
2023-02-16T04:32:00.554Z,-0.9
2023-02-16T04:33:00.292Z,-0.9
2023-02-16T04:34:00.272Z,-1.0
2023-02-16T04:35:00.500Z,-1.0
2023-02-16T04:36:00.281Z,-1.0
2023-02-16T04:37:00.376Z,-1.0
2023-02-16T04:38:00.284Z,-1.0
2023-02-16T04:39:00.327Z,-1.0
2023-02-16T04:40:00.393Z,-1.0
2023-02-16T04:41:00.331Z,-0.9
2023-02-16T04:42:00.334Z,-0.9
2023-02-16T04:43:00.297Z,-1.0
2023-02-16T04:44:00.309Z,-1.0
2023-02-16T04:45:00.357Z,-1.0
2023-02-16T04:46:00.345Z,-1.0
2023-02-16T04:47:00.317Z,-1.0
2023-02-16T04:48:00.361Z,-0.9
2023-02-16T04:49:00.364Z,-0.9
2023-02-16T04:50:00.319Z,-0.9
2023-02-16T04:51:03.453Z,-0.9
2023-02-16T04:52:00.406Z,-0.9
2023-02-16T04:53:00.340Z,-0.9
2023-02-16T04:54:00.295Z,-0.9
2023-02-16T04:55:00.327Z,-0.8
2023-02-16T04:56:00.302Z,-0.8
2023-02-16T04:57:00.482Z,-0.8
2023-02-16T04:58:00.462Z,-0.7
2023-02-16T04:59:00.295Z,-0.8
2023-02-16T05:00:00.316Z,-0.8
2023-02-16T05:01:00.305Z,-0.8
2023-02-16T05:02:00.294Z,-0.8
2023-02-16T05:03:00.284Z,-0.8
2023-02-16T05:04:00.322Z,-0.8
2023-02-16T05:05:00.309Z,-0.8
2023-02-16T05:06:00.308Z,-0.9
2023-02-16T05:07:00.306Z,-0.9
2023-02-16T05:08:00.988Z,-0.9
2023-02-16T05:09:00.297Z,-0.9
2023-02-16T05:10:00.344Z,-0.9
2023-02-16T05:11:00.303Z,-0.9
2023-02-16T05:12:00.322Z,-0.9
2023-02-16T05:13:00.350Z,-0.9
2023-02-16T05:14:00.323Z,-0.8
2023-02-16T05:15:00.357Z,-0.8
2023-02-16T05:16:00.382Z,-0.9
2023-02-16T05:17:00.287Z,-0.8
2023-02-16T05:18:00.281Z,-0.8
2023-02-16T05:19:00.507Z,-0.8
2023-02-16T05:20:00.343Z,-0.9
2023-02-16T05:21:00.294Z,-0.9
2023-02-16T05:22:00.497Z,-1.0
2023-02-16T05:23:00.284Z,-1.0
2023-02-16T05:24:04.070Z,-1.0
2023-02-16T05:25:01.191Z,-1.0
2023-02-16T05:26:00.275Z,-1.0
2023-02-16T05:27:05.363Z,-0.9
2023-02-16T05:28:00.320Z,-0.9
2023-02-16T05:29:01.194Z,-0.9
2023-02-16T05:30:00.342Z,-0.9
2023-02-16T05:31:00.329Z,-1.0
2023-02-16T05:32:02.640Z,-1.0
2023-02-16T05:33:00.342Z,-1.1
2023-02-16T05:34:00.284Z,-1.1
2023-02-16T05:35:00.461Z,-1.1
2023-02-16T05:36:00.269Z,-1.1
2023-02-16T05:37:00.389Z,-1.1
2023-02-16T05:38:00.290Z,-1.2
2023-02-16T05:39:00.329Z,-1.2
2023-02-16T05:40:00.296Z,-1.1
2023-02-16T05:41:00.852Z,-1.1
2023-02-16T05:42:00.344Z,-1.1
2023-02-16T05:43:00.271Z,-1.1
2023-02-16T05:44:02.864Z,-1.1
2023-02-16T05:45:00.309Z,-1.1
2023-02-16T05:46:07.015Z,-1.2
2023-02-16T05:47:00.281Z,-1.2
2023-02-16T05:48:00.291Z,-1.2
2023-02-16T05:49:00.706Z,-1.2
2023-02-16T05:50:00.324Z,-1.2
2023-02-16T05:51:00.304Z,-1.3
2023-02-16T05:52:00.307Z,-1.3
2023-02-16T05:53:00.455Z,-1.3
2023-02-16T05:54:00.368Z,-1.4
2023-02-16T05:55:00.356Z,-1.4
2023-02-16T05:56:00.346Z,-1.4
2023-02-16T05:57:00.300Z,-1.5
2023-02-16T05:58:00.332Z,-1.5
2023-02-16T05:59:00.314Z,-1.4
2023-02-16T06:00:00.343Z,-1.4
2023-02-16T06:01:00.561Z,-1.3
2023-02-16T06:02:00.323Z,-1.3
2023-02-16T06:03:00.349Z,-1.3
2023-02-16T06:04:00.310Z,-1.2
2023-02-16T06:05:00.298Z,-1.2
2023-02-16T06:06:01.601Z,-1.2
2023-02-16T06:07:01.026Z,-1.2
2023-02-16T06:08:00.281Z,-1.2
2023-02-16T06:09:00.273Z,-1.2
2023-02-16T06:10:00.287Z,-1.2
2023-02-16T06:11:00.292Z,-1.2
2023-02-16T06:12:00.319Z,-1.2
2023-02-16T06:13:00.346Z,-1.3
2023-02-16T06:14:00.781Z,-1.3
2023-02-16T06:15:00.637Z,-1.4
2023-02-16T06:16:00.376Z,-1.3
2023-02-16T06:17:00.369Z,-1.2
2023-02-16T06:18:00.305Z,-1.2
2023-02-16T06:19:01.126Z,-1.2
2023-02-16T06:20:00.297Z,-1.2
2023-02-16T06:21:00.301Z,-1.2
2023-02-16T06:22:00.309Z,-1.1
2023-02-16T06:23:00.292Z,-1.1
2023-02-16T06:24:00.758Z,-1.1
2023-02-16T06:25:00.314Z,-1.0
2023-02-16T06:26:00.305Z,-0.9
2023-02-16T06:27:00.275Z,-0.9
2023-02-16T06:28:00.645Z,-0.9
2023-02-16T06:29:00.544Z,-0.8
2023-02-16T06:30:00.412Z,-0.8
2023-02-16T06:31:00.468Z,-0.7
2023-02-16T06:32:00.474Z,-0.6
2023-02-16T06:33:01.449Z,-0.6
2023-02-16T06:34:00.303Z,-0.5
2023-02-16T06:35:00.559Z,-0.4
2023-02-16T06:36:00.375Z,-0.4
2023-02-16T06:37:00.303Z,-0.3
2023-02-16T06:38:00.349Z,-0.2
2023-02-16T06:39:00.370Z,-0.2
2023-02-16T06:40:00.308Z,-0.1
2023-02-16T06:41:00.376Z,0.1
2023-02-16T06:42:00.276Z,0.1
2023-02-16T06:43:00.322Z,0.2
2023-02-16T06:44:03.328Z,0.2
2023-02-16T06:45:00.348Z,0.3
2023-02-16T06:46:00.693Z,0.3
2023-02-16T06:47:00.304Z,0.4
2023-02-16T06:48:00.297Z,0.4
2023-02-16T06:49:00.340Z,0.4
2023-02-16T06:50:00.821Z,0.4
2023-02-16T06:51:00.277Z,0.4
2023-02-16T06:52:00.429Z,0.3
2023-02-16T06:53:00.334Z,0.3
2023-02-16T06:54:00.282Z,0.3
2023-02-16T06:55:00.346Z,0.3
2023-02-16T06:56:00.318Z,0.3
2023-02-16T06:57:00.286Z,0.3
2023-02-16T06:58:00.289Z,0.4
2023-02-16T06:59:00.718Z,0.3
2023-02-16T07:00:00.314Z,0.3
2023-02-16T07:01:00.452Z,0.3
2023-02-16T07:02:00.369Z,0.3
2023-02-16T07:03:00.702Z,0.5
2023-02-16T07:04:00.307Z,0.6
2023-02-16T07:05:00.644Z,0.7
2023-02-16T07:06:00.358Z,0.7
2023-02-16T07:07:00.318Z,0.7
2023-02-16T07:08:00.319Z,0.7
2023-02-16T07:09:00.308Z,0.7
2023-02-16T07:10:00.363Z,0.7
2023-02-16T07:11:00.273Z,0.8
2023-02-16T07:12:00.306Z,0.8
2023-02-16T07:13:00.273Z,0.9
2023-02-16T07:14:00.355Z,1.0
2023-02-16T07:15:00.344Z,0.9
2023-02-16T07:16:00.332Z,0.9
2023-02-16T07:17:00.302Z,1.0
2023-02-16T07:18:00.296Z,0.9
2023-02-16T07:19:00.295Z,1.0
2023-02-16T07:20:00.330Z,1.0
2023-02-16T07:21:00.725Z,0.9
2023-02-16T07:22:00.816Z,1.0
2023-02-16T07:23:00.932Z,1.1
2023-02-16T07:24:00.296Z,1.1
2023-02-16T07:25:00.314Z,1.2
2023-02-16T07:26:00.373Z,1.3
2023-02-16T07:27:00.305Z,1.4
2023-02-16T07:28:00.297Z,1.5
2023-02-16T07:29:00.318Z,1.6
2023-02-16T07:30:00.321Z,1.6
2023-02-16T07:31:05.401Z,1.7
2023-02-16T07:32:00.965Z,1.8
2023-02-16T07:33:00.283Z,1.9
2023-02-16T07:34:00.510Z,2.0
2023-02-16T07:35:00.291Z,2.0
2023-02-16T07:36:00.410Z,2.0
2023-02-16T07:37:00.325Z,2.1
2023-02-16T07:38:00.355Z,2.1
2023-02-16T07:39:00.316Z,2.2
2023-02-16T07:40:00.317Z,2.3
2023-02-16T07:41:00.314Z,2.4
2023-02-16T07:42:00.289Z,2.5
2023-02-16T07:43:02.411Z,2.6
2023-02-16T07:44:00.298Z,2.6
2023-02-16T07:45:00.277Z,2.8
2023-02-16T07:46:00.994Z,2.9
2023-02-16T07:47:00.296Z,3.0
2023-02-16T07:48:01.275Z,3.1
2023-02-16T07:49:00.353Z,3.1
2023-02-16T07:50:00.320Z,3.3
2023-02-16T07:51:00.359Z,3.4
2023-02-16T07:52:00.284Z,3.7
2023-02-16T07:53:01.282Z,3.8
2023-02-16T07:54:00.325Z,4.1
2023-02-16T07:55:00.475Z,4.2
2023-02-16T07:56:00.312Z,4.4
2023-02-16T07:57:00.335Z,4.5
2023-02-16T07:58:00.275Z,4.4
2023-02-16T07:59:01.872Z,4.3
2023-02-16T08:00:00.354Z,4.5
2023-02-16T08:02:00.719Z,4.8
2023-02-16T08:03:01.221Z,5.0
2023-02-16T08:04:00.342Z,5.0
2023-02-16T08:05:00.402Z,5.0
2023-02-16T08:06:01.089Z,5.2
2023-02-16T08:07:00.291Z,5.2
2023-02-16T08:08:00.316Z,5.2
2023-02-16T08:09:00.280Z,5.3
2023-02-16T08:10:00.297Z,5.4
2023-02-16T08:11:08.105Z,5.6
2023-02-16T08:12:00.298Z,5.7
2023-02-16T08:13:00.953Z,5.7
2023-02-16T08:14:00.337Z,5.7
2023-02-16T08:15:00.293Z,5.7
2023-02-16T08:16:00.338Z,5.7
2023-02-16T08:17:00.526Z,5.7
2023-02-16T08:18:00.269Z,5.8
2023-02-16T08:19:00.848Z,5.8
2023-02-16T08:20:00.347Z,5.9
2023-02-16T08:21:11.236Z,6.0
2023-02-16T08:22:00.688Z,6.1
2023-02-16T08:23:00.288Z,6.2
2023-02-16T08:24:03.403Z,6.2
2023-02-16T08:25:00.277Z,6.3
2023-02-16T08:26:06.343Z,6.3
2023-02-16T08:27:01.898Z,6.3
2023-02-16T08:28:00.298Z,6.4
2023-02-16T08:29:00.356Z,6.3
2023-02-16T08:30:00.358Z,6.3
2023-02-16T08:31:02.028Z,6.4
2023-02-16T08:32:01.607Z,6.6
2023-02-16T08:33:00.617Z,6.8
2023-02-16T08:34:00.834Z,7.0
2023-02-16T08:35:00.297Z,7.1
2023-02-16T08:36:00.365Z,7.1
2023-02-16T08:37:00.305Z,7.0
2023-02-16T08:38:00.421Z,7.1
2023-02-16T08:39:03.387Z,7.2
2023-02-16T08:40:00.292Z,7.2
2023-02-16T08:41:00.765Z,7.3
2023-02-16T08:42:00.924Z,7.2
2023-02-16T08:43:00.303Z,7.2
2023-02-16T08:44:01.436Z,7.2
2023-02-16T08:45:00.294Z,7.2
2023-02-16T08:46:00.435Z,7.2
2023-02-16T08:47:00.362Z,7.4
2023-02-16T08:48:00.331Z,7.3
2023-02-16T08:49:00.962Z,7.3
2023-02-16T08:50:00.293Z,7.6
2023-02-16T08:51:01.196Z,7.7
2023-02-16T08:52:00.369Z,7.6
2023-02-16T08:53:00.301Z,7.7
2023-02-16T08:54:02.630Z,7.7
2023-02-16T08:55:00.273Z,7.9
2023-02-16T08:56:03.767Z,7.7
2023-02-16T08:57:00.956Z,7.6
2023-02-16T08:58:00.293Z,7.7
2023-02-16T08:59:00.834Z,7.8
2023-02-16T09:00:00.298Z,8.0
2023-02-16T09:01:02.931Z,8.0
2023-02-16T09:02:00.933Z,8.1
2023-02-16T09:03:00.352Z,8.1
2023-02-16T09:04:00.278Z,8.2
2023-02-16T09:05:00.296Z,8.2
2023-02-16T09:06:03.828Z,8.2
2023-02-16T09:07:00.287Z,8.3
2023-02-16T09:08:00.317Z,8.4
2023-02-16T09:09:00.291Z,8.6
2023-02-16T09:10:02.109Z,8.6
2023-02-16T09:11:01.838Z,8.7
2023-02-16T09:12:00.334Z,8.7
2023-02-16T09:13:00.298Z,8.6
2023-02-16T09:14:00.597Z,8.8
2023-02-16T09:15:00.276Z,9.1
2023-02-16T09:16:02.675Z,9.2
2023-02-16T09:17:00.423Z,9.3
2023-02-16T09:18:00.290Z,9.4
2023-02-16T09:19:00.584Z,9.3
2023-02-16T09:20:00.745Z,9.1
2023-02-16T09:21:05.645Z,8.9
2023-02-16T09:22:00.300Z,8.9
2023-02-16T09:23:00.314Z,8.9
2023-02-16T09:24:02.907Z,8.8
2023-02-16T09:25:00.294Z,8.6
2023-02-16T09:26:00.652Z,8.2
2023-02-16T09:27:00.272Z,8.3
2023-02-16T09:28:00.431Z,8.2
2023-02-16T09:29:00.695Z,8.0
2023-02-16T09:30:00.359Z,8.0
2023-02-16T09:31:00.511Z,8.0
2023-02-16T09:32:00.348Z,8.0
2023-02-16T09:33:00.304Z,7.9
2023-02-16T09:34:04.402Z,8.0
2023-02-16T09:35:00.389Z,7.9
2023-02-16T09:36:03.531Z,7.9
2023-02-16T09:37:00.322Z,7.8
2023-02-16T09:38:00.308Z,7.6
2023-02-16T09:39:00.317Z,7.5
2023-02-16T09:40:00.297Z,7.3
2023-02-16T09:41:05.319Z,7.2
2023-02-16T09:42:16.569Z,7.2
2023-02-16T09:43:13.300Z,7.1
2023-02-16T09:44:20.209Z,7.1
2023-02-16T09:45:11.580Z,7.0
2023-02-16T09:46:02.165Z,7.1
2023-02-16T09:47:03.869Z,7.1
2023-02-16T09:48:01.108Z,7.1
2023-02-16T09:49:02.344Z,7.1
2023-02-16T09:50:11.614Z,7.1
2023-02-16T09:51:02.763Z,7.1
2023-02-16T09:52:12.282Z,7.1
2023-02-16T09:53:06.865Z,7.2
2023-02-16T09:54:18.743Z,7.2
2023-02-16T09:55:01.873Z,7.3
2023-02-16T09:56:13.881Z,7.3
2023-02-16T09:57:16.174Z,7.3
2023-02-16T09:58:01.301Z,7.4
2023-02-16T09:59:13.159Z,7.3
2023-02-16T10:00:04.868Z,7.3
2023-02-16T10:01:09.734Z,7.2
2023-02-16T10:02:20.231Z,7.1
2023-02-16T10:03:10.305Z,7.1
2023-02-16T10:04:20.252Z,7.2
2023-02-16T10:05:19.691Z,7.2
2023-02-16T10:06:13.475Z,7.2
2023-02-16T10:07:11.253Z,7.2
2023-02-16T10:08:13.480Z,7.2
2023-02-16T10:09:06.693Z,7.2
2023-02-16T10:10:02.493Z,7.2
2023-02-16T10:11:15.958Z,7.1
2023-02-16T10:12:08.395Z,7.1
2023-02-16T10:13:10.744Z,7.1
2023-02-16T10:14:07.179Z,7.2
2023-02-16T10:15:08.057Z,7.1
2023-02-16T10:16:03.599Z,7.1
2023-02-16T10:17:05.253Z,7.0
2023-02-16T10:18:07.465Z,7.0
2023-02-16T10:19:10.439Z,7.0
2023-02-16T10:20:05.016Z,7.0
2023-02-16T10:21:06.033Z,7.0
2023-02-16T10:22:04.635Z,7.0
2023-02-16T10:23:12.647Z,7.1
2023-02-16T10:24:03.942Z,7.1
2023-02-16T10:25:04.806Z,7.0
2023-02-16T10:26:16.133Z,7.0
2023-02-16T10:27:06.322Z,7.0
2023-02-16T10:28:22.653Z,7.0
2023-02-16T10:29:06.187Z,7.1
2023-02-16T10:30:00.360Z,7.1
2023-02-16T10:31:11.760Z,7.1
2023-02-16T10:32:00.485Z,7.0
2023-02-16T10:33:13.977Z,7.0
2023-02-16T10:34:16.461Z,7.0
2023-02-16T10:35:12.921Z,7.0
2023-02-16T10:36:13.060Z,7.1
2023-02-16T10:37:13.503Z,7.1
2023-02-16T10:38:15.988Z,7.0
2023-02-16T10:39:06.673Z,7.1
2023-02-16T10:40:11.256Z,7.1
2023-02-16T10:41:08.677Z,7.1
2023-02-16T10:42:10.467Z,7.1
2023-02-16T10:43:14.129Z,7.1
2023-02-16T10:44:10.083Z,7.1
2023-02-16T10:45:06.035Z,7.0
2023-02-16T10:46:01.144Z,7.0
2023-02-16T10:47:03.086Z,7.0
2023-02-16T10:48:00.310Z,6.9
2023-02-16T10:49:00.431Z,7.0
2023-02-16T10:50:00.678Z,7.0
2023-02-16T10:51:11.301Z,7.0
2023-02-16T10:52:02.451Z,7.0
2023-02-16T10:53:09.003Z,7.0
2023-02-16T10:54:04.806Z,7.1
2023-02-16T10:55:00.803Z,7.1
2023-02-16T10:56:00.497Z,7.1
2023-02-16T10:57:10.293Z,7.1
2023-02-16T10:58:00.998Z,7.1
2023-02-16T10:59:05.452Z,7.1
2023-02-16T11:00:05.314Z,7.1
2023-02-16T11:01:15.282Z,7.1
2023-02-16T11:02:03.282Z,7.1
2023-02-16T11:03:01.619Z,7.1
2023-02-16T11:04:00.353Z,7.0
2023-02-16T11:05:00.378Z,7.0
2023-02-16T11:06:18.964Z,7.0
2023-02-16T11:07:07.561Z,6.9
2023-02-16T11:08:01.140Z,7.0
2023-02-16T11:09:01.416Z,7.0
2023-02-16T11:10:18.273Z,7.0
2023-02-16T11:11:08.691Z,7.0
2023-02-16T11:12:02.274Z,7.0
2023-02-16T11:13:01.458Z,7.0
2023-02-16T11:14:03.889Z,7.0
2023-02-16T11:15:13.499Z,7.0
2023-02-16T11:16:08.514Z,7.0
2023-02-16T11:17:03.155Z,7.0
2023-02-16T11:18:04.348Z,7.0
2023-02-16T11:19:05.494Z,7.0
2023-02-16T11:20:04.713Z,7.0
2023-02-16T11:21:00.526Z,7.0
2023-02-16T11:22:00.337Z,7.0
2023-02-16T11:23:13.131Z,7.0
2023-02-16T11:24:00.295Z,7.0
2023-02-16T11:25:17.767Z,7.0
2023-02-16T11:26:02.988Z,7.0
2023-02-16T11:27:01.716Z,7.1
2023-02-16T11:28:01.011Z,7.1
2023-02-16T11:29:18.625Z,7.1
2023-02-16T11:30:14.398Z,7.1
2023-02-16T11:31:09.450Z,7.1
2023-02-16T11:32:11.379Z,7.1
2023-02-16T11:33:03.164Z,7.1
2023-02-16T11:34:06.654Z,7.2
2023-02-16T11:35:00.858Z,7.2
2023-02-16T11:36:01.002Z,7.1
2023-02-16T11:37:12.374Z,7.1
2023-02-16T11:38:00.325Z,7.1
2023-02-16T11:39:06.387Z,7.1
2023-02-16T11:40:06.504Z,7.1
2023-02-16T11:41:04.774Z,7.1
2023-02-16T11:42:04.044Z,7.2
2023-02-16T11:43:01.267Z,7.2
2023-02-16T11:44:01.937Z,7.2
2023-02-16T11:45:02.682Z,7.2
2023-02-16T11:46:04.916Z,7.2
2023-02-16T11:47:03.083Z,7.2
2023-02-16T11:48:04.609Z,7.2
2023-02-16T11:57:06.925Z,7.2
2023-02-16T11:58:20.214Z,7.2
2023-02-16T11:59:03.185Z,7.2
2023-02-16T12:00:12.913Z,7.2
2023-02-16T12:01:17.600Z,7.3
2023-02-16T12:02:10.442Z,7.3
2023-02-16T12:03:11.246Z,7.3
2023-02-16T12:04:11.304Z,7.3
2023-02-16T12:05:20.196Z,7.3
2023-02-16T12:06:20.199Z,7.3
2023-02-16T12:07:13.434Z,7.3
2023-02-16T12:08:15.399Z,7.3
2023-02-16T12:09:06.887Z,7.4
2023-02-16T12:10:11.155Z,7.3
2023-02-16T12:11:13.689Z,7.3
2023-02-16T12:12:20.237Z,7.4
2023-02-16T12:13:12.450Z,7.4
2023-02-16T12:14:13.847Z,7.3
2023-02-16T12:15:08.221Z,7.3
2023-02-16T12:16:11.544Z,7.3
2023-02-16T12:17:06.098Z,7.3
2023-02-16T12:18:13.708Z,7.3
2023-02-16T12:19:13.493Z,7.4
2023-02-16T12:20:20.189Z,7.3
2023-02-16T12:21:07.382Z,7.3
2023-02-16T12:22:15.280Z,7.3
2023-02-16T12:23:16.113Z,7.3
2023-02-16T12:24:13.990Z,7.4
2023-02-16T12:25:17.654Z,7.4
2023-02-16T12:26:13.505Z,7.4
2023-02-16T12:27:02.840Z,7.4
2023-02-16T12:28:16.532Z,7.4
2023-02-16T12:29:12.863Z,7.4
2023-02-16T12:30:10.317Z,7.4
2023-02-16T12:31:09.885Z,7.4
2023-02-16T12:32:11.247Z,7.4
2023-02-16T12:33:08.454Z,7.4
2023-02-16T12:34:13.508Z,7.4
2023-02-16T12:35:20.216Z,7.4
2023-02-16T12:36:20.216Z,7.5
2023-02-16T12:37:07.974Z,7.4
2023-02-16T12:38:00.330Z,7.5
2023-02-16T12:39:11.559Z,7.5
2023-02-16T12:40:13.515Z,7.5
2023-02-16T12:41:17.666Z,7.5
2023-02-16T12:42:20.204Z,7.5
2023-02-16T12:43:18.208Z,7.5
2023-02-16T12:44:06.824Z,7.5
2023-02-16T12:45:10.243Z,7.6
2023-02-16T12:46:05.182Z,7.6
2023-02-16T12:47:04.378Z,7.6
2023-02-16T12:48:07.352Z,7.6
2023-02-16T12:49:06.330Z,7.6
2023-02-16T12:50:03.805Z,7.6
2023-02-16T12:51:04.159Z,7.6
2023-02-16T12:52:05.655Z,7.6
2023-02-16T12:53:08.020Z,7.6
2023-02-16T12:54:09.432Z,7.6
2023-02-16T12:55:20.205Z,7.6
2023-02-16T12:56:04.335Z,7.6
2023-02-16T12:57:05.969Z,7.6
2023-02-16T12:58:08.968Z,7.6
2023-02-16T12:59:20.186Z,7.6
2023-02-16T13:00:09.026Z,7.6
2023-02-16T13:01:14.858Z,7.6
2023-02-16T13:02:03.210Z,7.6
2023-02-16T13:03:16.056Z,7.6
2023-02-16T13:04:14.823Z,7.6
2023-02-16T13:05:15.384Z,7.6
2023-02-16T13:06:20.208Z,7.6
2023-02-16T13:07:05.854Z,7.6
2023-02-16T13:08:09.474Z,7.6
2023-02-16T13:09:19.017Z,7.6
2023-02-16T13:10:13.430Z,7.6
2023-02-16T13:11:14.044Z,7.5
2023-02-16T13:12:10.272Z,7.5
2023-02-16T13:13:07.928Z,7.5
2023-02-16T13:14:05.152Z,7.5
2023-02-16T13:15:04.672Z,7.5
2023-02-16T13:16:12.901Z,7.5
2023-02-16T13:17:12.862Z,7.5
2023-02-16T13:18:03.403Z,7.5
2023-02-16T13:19:00.379Z,7.5
2023-02-16T13:20:02.614Z,7.5
2023-02-16T13:21:08.157Z,7.6
2023-02-16T13:22:20.264Z,7.6
2023-02-16T13:23:20.241Z,7.6
2023-02-16T13:24:20.193Z,7.6
2023-02-16T13:25:22.025Z,7.6
2023-02-16T13:26:10.580Z,7.6
2023-02-16T13:27:20.194Z,7.6
2023-02-16T13:28:20.302Z,7.6
2023-02-16T13:29:17.673Z,7.6
2023-02-16T13:30:20.263Z,7.6
2023-02-16T13:31:13.856Z,7.6
2023-02-16T13:32:21.028Z,7.6
2023-02-16T13:33:07.771Z,7.6
2023-02-16T13:34:12.357Z,7.5
2023-02-16T13:35:11.202Z,7.5
2023-02-16T13:36:10.315Z,7.5
2023-02-16T13:37:16.816Z,7.5
2023-02-16T13:38:13.498Z,7.5
2023-02-16T13:39:19.680Z,7.5
2023-02-16T13:40:18.960Z,7.5
2023-02-16T13:41:11.276Z,7.5